createdAt,value
2022-10-14T00:00:18.980Z,0.00
2022-10-14T00:01:19.314Z,0.00
2022-10-14T00:02:19.667Z,0.00
2022-10-14T00:03:19.983Z,0.00
2022-10-14T00:04:20.287Z,0.00
2022-10-14T00:05:20.605Z,0.00
2022-10-14T00:06:20.936Z,0.00
2022-10-14T00:07:21.595Z,0.00
2022-10-14T00:08:21.594Z,0.00
2022-10-14T00:09:21.914Z,0.00
2022-10-14T00:10:22.237Z,0.00
2022-10-14T00:11:22.577Z,0.00
2022-10-14T00:12:22.937Z,0.00
2022-10-14T00:13:23.162Z,0.00
2022-10-14T00:14:23.485Z,0.00
2022-10-14T00:15:23.810Z,0.00
2022-10-14T00:16:24.118Z,0.00
2022-10-14T00:17:24.436Z,0.00
2022-10-14T00:18:24.739Z,0.00
2022-10-14T00:19:25.051Z,0.00
2022-10-14T00:20:25.383Z,0.00
2022-10-14T00:21:25.628Z,0.00
2022-10-14T00:22:25.937Z,0.00
2022-10-14T00:23:26.288Z,0.00
2022-10-14T00:24:26.610Z,0.00
2022-10-14T00:25:26.918Z,0.00
2022-10-14T00:26:27.269Z,0.00
2022-10-14T00:27:27.589Z,0.00
2022-10-14T00:28:27.971Z,0.00
2022-10-14T00:29:28.193Z,0.00
2022-10-14T00:30:28.533Z,0.00
2022-10-14T00:31:28.892Z,0.00
2022-10-14T00:32:29.245Z,0.00
2022-10-14T00:33:29.442Z,0.00
2022-10-14T00:34:30.736Z,0.00
2022-10-14T00:35:30.000Z,0.00
2022-10-14T00:36:30.361Z,0.00
2022-10-14T00:37:30.554Z,0.00
2022-10-14T00:38:30.900Z,0.00
2022-10-14T00:39:31.220Z,0.00
2022-10-14T00:40:31.549Z,0.00
2022-10-14T00:41:31.937Z,0.00
2022-10-14T00:42:32.149Z,0.00
2022-10-14T00:43:32.457Z,0.00
2022-10-14T00:44:32.774Z,0.00
2022-10-14T00:45:33.089Z,0.00
2022-10-14T00:46:33.438Z,0.00
2022-10-14T00:47:33.632Z,0.00
2022-10-14T00:48:33.972Z,0.00
2022-10-14T00:49:34.308Z,0.00
2022-10-14T00:50:34.621Z,0.00
2022-10-14T00:51:34.947Z,0.00
2022-10-14T00:52:35.272Z,0.00
2022-10-14T00:53:35.615Z,0.00
2022-10-14T00:54:35.938Z,0.00
2022-10-14T00:55:36.268Z,0.00
2022-10-14T00:56:36.596Z,0.00
2022-10-14T00:57:36.932Z,0.00
2022-10-14T00:58:37.235Z,0.00
2022-10-14T00:59:37.569Z,0.00
2022-10-14T01:00:38.076Z,0.00
2022-10-14T01:01:38.178Z,0.00
2022-10-14T01:02:38.559Z,0.00
2022-10-14T01:03:38.746Z,0.00
2022-10-14T01:04:39.080Z,0.00
2022-10-14T01:05:39.429Z,0.00
2022-10-14T01:06:39.750Z,0.00
2022-10-14T01:07:40.072Z,0.00
2022-10-14T01:08:40.379Z,0.00
2022-10-14T01:09:40.729Z,0.00
2022-10-14T01:10:41.059Z,0.00
2022-10-14T01:11:41.434Z,0.00
2022-10-14T01:12:41.630Z,0.00
2022-10-14T01:13:41.949Z,0.00
2022-10-14T01:14:42.274Z,0.00
2022-10-14T01:15:42.611Z,0.00
2022-10-14T01:16:42.959Z,0.00
2022-10-14T01:17:43.314Z,0.00
2022-10-14T01:18:43.525Z,0.00
2022-10-14T01:19:43.831Z,0.00
2022-10-14T01:20:44.326Z,0.00
2022-10-14T01:21:44.492Z,0.00
2022-10-14T01:22:44.804Z,0.00
2022-10-14T01:23:45.113Z,0.00
2022-10-14T01:24:45.445Z,0.00
2022-10-14T01:25:45.753Z,0.00
2022-10-14T01:26:46.113Z,0.00
2022-10-14T01:27:46.416Z,0.00
2022-10-14T01:28:46.787Z,0.00
2022-10-14T01:29:47.076Z,0.00
2022-10-14T01:30:47.398Z,0.00
2022-10-14T01:31:47.741Z,0.00
2022-10-14T01:32:48.181Z,0.00
2022-10-14T01:33:48.334Z,0.00
2022-10-14T01:34:48.677Z,0.00
2022-10-14T01:35:48.995Z,0.00
2022-10-14T01:36:49.347Z,0.00
2022-10-14T01:37:49.663Z,0.00
2022-10-14T01:38:49.980Z,0.00
2022-10-14T01:39:50.288Z,0.00
2022-10-14T01:40:50.598Z,0.00
2022-10-14T01:41:50.948Z,0.00
2022-10-14T01:42:51.157Z,0.00
2022-10-14T01:43:51.506Z,0.00
2022-10-14T01:44:51.818Z,0.00
2022-10-14T01:45:52.140Z,0.00
2022-10-14T01:46:52.468Z,0.00
2022-10-14T01:47:52.829Z,0.00
2022-10-14T01:48:53.049Z,0.00
2022-10-14T01:49:53.379Z,0.00
2022-10-14T01:50:53.681Z,0.00
2022-10-14T01:51:54.017Z,0.00
2022-10-14T01:52:54.340Z,0.00
2022-10-14T01:53:54.643Z,0.00
2022-10-14T01:54:54.962Z,0.00
2022-10-14T01:55:55.298Z,0.00
2022-10-14T01:56:55.621Z,0.00
2022-10-14T01:57:55.944Z,0.00
2022-10-14T01:58:56.276Z,0.00
2022-10-14T01:59:56.591Z,0.00
2022-10-14T02:00:56.943Z,0.00
2022-10-14T02:01:57.296Z,0.00
2022-10-14T02:02:57.591Z,0.00
2022-10-14T02:03:57.920Z,0.00
2022-10-14T02:04:58.244Z,0.00
2022-10-14T02:05:58.582Z,0.00
2022-10-14T02:06:58.903Z,0.00
2022-10-14T02:07:59.237Z,0.00
2022-10-14T02:08:59.585Z,0.00
2022-10-14T02:09:59.797Z,0.00
2022-10-14T02:11:02.437Z,0.00
2022-10-14T02:12:00.446Z,0.00
2022-10-14T02:13:00.820Z,0.00
2022-10-14T02:14:01.208Z,0.00
2022-10-14T02:15:01.395Z,0.00
2022-10-14T02:16:01.745Z,0.00
2022-10-14T02:17:01.963Z,0.00
2022-10-14T02:18:02.287Z,0.00
2022-10-14T02:19:02.617Z,0.00
2022-10-14T02:20:02.955Z,0.00
2022-10-14T02:21:03.301Z,0.00
2022-10-14T02:22:03.626Z,0.00
2022-10-14T02:23:03.949Z,0.00
2022-10-14T02:24:04.318Z,0.00
2022-10-14T02:25:04.531Z,0.00
2022-10-14T02:26:04.769Z,0.00
2022-10-14T02:27:05.100Z,0.00
2022-10-14T02:28:05.426Z,0.00
2022-10-14T02:29:05.792Z,0.00
2022-10-14T02:30:06.099Z,0.00
2022-10-14T02:31:06.430Z,0.00
2022-10-14T02:32:06.767Z,0.00
2022-10-14T02:33:07.113Z,0.00
2022-10-14T02:34:07.517Z,0.00
2022-10-14T02:35:07.832Z,0.00
2022-10-14T02:36:08.059Z,0.00
2022-10-14T02:37:08.306Z,0.00
2022-10-14T02:38:08.542Z,0.00
2022-10-14T02:39:08.770Z,0.00
2022-10-14T02:40:09.039Z,0.00
2022-10-14T02:41:09.263Z,0.00
2022-10-14T02:42:09.491Z,0.00
2022-10-14T02:43:09.723Z,0.00
2022-10-14T02:44:09.946Z,0.00
2022-10-14T02:45:10.312Z,0.00
2022-10-14T02:46:10.543Z,0.00
2022-10-14T02:47:10.781Z,0.00
2022-10-14T02:48:11.034Z,0.00
2022-10-14T02:49:11.400Z,0.00
2022-10-14T02:50:11.576Z,0.00
2022-10-14T02:51:11.829Z,0.00
2022-10-14T02:52:12.086Z,0.00
2022-10-14T02:53:12.334Z,0.00
2022-10-14T02:54:12.598Z,0.00
2022-10-14T02:55:12.864Z,0.00
2022-10-14T02:56:13.104Z,0.00
2022-10-14T02:57:13.325Z,0.00
2022-10-14T02:58:13.566Z,0.00
2022-10-14T02:59:13.809Z,0.00
2022-10-14T03:00:14.095Z,0.00
2022-10-14T03:01:14.336Z,0.00
2022-10-14T03:02:14.620Z,0.00
2022-10-14T03:03:14.869Z,0.00
2022-10-14T03:04:15.159Z,0.00
2022-10-14T03:05:15.477Z,0.00
2022-10-14T03:06:15.718Z,0.00
2022-10-14T03:07:15.958Z,0.00
2022-10-14T03:08:16.210Z,0.00
2022-10-14T03:09:16.456Z,0.00
2022-10-14T03:10:16.706Z,0.00
2022-10-14T03:11:16.958Z,0.00
2022-10-14T03:12:17.206Z,0.00
2022-10-14T03:13:17.451Z,0.00
2022-10-14T03:14:17.689Z,0.00
2022-10-14T03:15:18.060Z,0.00
2022-10-14T03:16:19.156Z,0.00
2022-10-14T03:17:18.570Z,0.00
2022-10-14T03:18:18.803Z,0.00
2022-10-14T03:19:19.048Z,0.00
2022-10-14T03:20:19.312Z,0.00
2022-10-14T03:21:19.569Z,0.00
2022-10-14T03:22:20.210Z,0.00
2022-10-14T03:23:20.133Z,0.00
2022-10-14T03:24:20.365Z,0.00
2022-10-14T03:25:20.610Z,0.00
2022-10-14T03:26:20.924Z,0.00
2022-10-14T03:27:21.303Z,0.00
2022-10-14T03:28:21.483Z,0.00
2022-10-14T03:29:21.734Z,0.00
2022-10-14T03:30:21.975Z,0.00
2022-10-14T03:31:22.214Z,0.00
2022-10-14T03:32:22.736Z,0.00
2022-10-14T03:33:25.892Z,0.00
2022-10-14T03:34:22.963Z,0.00
2022-10-14T03:35:23.229Z,0.00
2022-10-14T03:36:23.476Z,0.00
2022-10-14T03:37:23.745Z,0.00
2022-10-14T03:38:23.981Z,0.00
2022-10-14T03:39:24.229Z,0.00
2022-10-14T03:40:24.507Z,0.00
2022-10-14T03:41:24.796Z,0.00
2022-10-14T03:42:25.026Z,0.00
2022-10-14T03:43:25.271Z,0.00
2022-10-14T03:44:25.535Z,0.00
2022-10-14T03:45:25.837Z,0.00
2022-10-14T03:46:26.080Z,0.00
2022-10-14T03:47:26.336Z,0.00
2022-10-14T03:48:26.605Z,0.00
2022-10-14T03:49:26.897Z,0.00
2022-10-14T03:50:27.157Z,0.00
2022-10-14T03:51:27.429Z,0.00
2022-10-14T03:52:27.657Z,0.00
2022-10-14T03:53:27.900Z,0.00
2022-10-14T03:54:28.160Z,0.00
2022-10-14T03:55:28.419Z,0.00
2022-10-14T03:56:28.669Z,0.00
2022-10-14T03:57:28.919Z,0.00
2022-10-14T03:58:29.154Z,0.00
2022-10-14T03:59:29.413Z,0.00
2022-10-14T04:00:29.659Z,0.00
2022-10-14T04:01:29.981Z,0.00
2022-10-14T04:02:30.214Z,0.00
2022-10-14T04:03:30.502Z,0.00
2022-10-14T04:04:30.772Z,0.00
2022-10-14T04:05:31.033Z,0.00
2022-10-14T04:06:31.391Z,0.00
2022-10-14T04:07:31.501Z,0.00
2022-10-14T04:08:31.770Z,0.00
2022-10-14T04:09:32.023Z,0.00
2022-10-14T04:10:32.253Z,0.00
2022-10-14T04:11:32.493Z,0.00
2022-10-14T04:12:32.745Z,0.00
2022-10-14T04:13:33.047Z,0.00
2022-10-14T04:14:33.353Z,0.00
2022-10-14T04:15:33.597Z,0.00
2022-10-14T04:16:33.826Z,0.00
2022-10-14T04:17:34.246Z,0.00
2022-10-14T04:18:34.296Z,0.00
2022-10-14T04:19:34.564Z,0.00
2022-10-14T04:20:34.835Z,0.00
2022-10-14T04:21:35.088Z,0.00
2022-10-14T04:22:35.337Z,0.00
2022-10-14T04:23:35.628Z,0.00
2022-10-14T04:24:35.897Z,16.00
2022-10-14T04:25:36.148Z,16.00
2022-10-14T04:26:36.469Z,16.00
2022-10-14T04:27:36.746Z,16.00
2022-10-14T04:28:37.034Z,0.00
2022-10-14T04:29:37.308Z,0.00
2022-10-14T04:30:37.529Z,0.00
2022-10-14T04:31:37.879Z,0.00
2022-10-14T04:32:38.107Z,0.00
2022-10-14T04:33:38.482Z,0.00
2022-10-14T04:34:38.726Z,0.00
2022-10-14T04:35:39.013Z,0.00
2022-10-14T04:36:39.240Z,0.00
2022-10-14T04:37:39.481Z,0.00
2022-10-14T04:38:39.770Z,0.00
2022-10-14T04:39:40.021Z,0.00
2022-10-14T04:40:40.289Z,0.00
2022-10-14T04:41:40.591Z,0.00
2022-10-14T04:42:40.851Z,0.00
2022-10-14T04:43:41.107Z,0.00
2022-10-14T04:44:41.401Z,0.00
2022-10-14T04:45:41.877Z,0.00
2022-10-14T04:46:41.934Z,0.00
2022-10-14T04:47:47.645Z,0.00
2022-10-14T04:48:43.569Z,0.00
2022-10-14T04:49:42.802Z,0.00
2022-10-14T04:50:43.114Z,0.00
2022-10-14T04:51:43.330Z,0.00
2022-10-14T04:52:43.712Z,0.00
2022-10-14T04:53:43.973Z,0.00
2022-10-14T04:54:44.222Z,0.00
2022-10-14T04:55:44.457Z,0.00
2022-10-14T04:56:44.708Z,4.00
2022-10-14T04:57:44.942Z,4.00
2022-10-14T04:58:45.168Z,0.00
2022-10-14T04:59:45.415Z,4.00
2022-10-14T05:00:45.668Z,4.00
2022-10-14T05:01:46.025Z,4.00
2022-10-14T05:02:46.280Z,4.00
2022-10-14T05:03:46.542Z,4.00
2022-10-14T05:04:46.826Z,8.00
2022-10-14T05:05:47.116Z,8.00
2022-10-14T05:06:47.506Z,8.00
2022-10-14T05:07:47.727Z,12.00
2022-10-14T05:08:47.967Z,12.00
2022-10-14T05:09:51.195Z,16.00
2022-10-14T05:10:48.558Z,20.00
2022-10-14T05:11:48.894Z,20.00
2022-10-14T05:12:49.136Z,24.00
2022-10-14T05:13:49.392Z,28.00
2022-10-14T05:14:49.734Z,32.00
2022-10-14T05:15:49.869Z,36.00
2022-10-14T05:16:50.145Z,44.00
2022-10-14T05:17:50.519Z,52.00
2022-10-14T05:18:50.742Z,56.00
2022-10-14T05:19:51.084Z,64.00
2022-10-14T05:20:51.220Z,72.00
2022-10-14T05:21:51.478Z,80.00
2022-10-14T05:22:51.720Z,88.00
2022-10-14T05:23:51.941Z,96.00
2022-10-14T05:24:52.213Z,104.00
2022-10-14T05:25:52.494Z,116.00
2022-10-14T05:26:52.752Z,128.00
2022-10-14T05:27:53.005Z,140.00
2022-10-14T05:28:53.277Z,152.00
2022-10-14T05:29:53.529Z,164.00
2022-10-14T05:30:53.775Z,180.00
2022-10-14T05:31:54.072Z,196.00
2022-10-14T05:32:54.394Z,208.00
2022-10-14T05:33:54.633Z,224.00
2022-10-14T05:34:54.895Z,244.00
2022-10-14T05:35:59.132Z,264.00
2022-10-14T05:36:55.463Z,284.00
2022-10-14T05:37:57.028Z,300.00
2022-10-14T05:38:55.973Z,324.00
2022-10-14T05:39:56.248Z,344.00
2022-10-14T05:40:56.512Z,368.00
2022-10-14T05:41:56.752Z,388.00
2022-10-14T05:42:57.017Z,408.00
2022-10-14T05:43:57.306Z,432.00
2022-10-14T05:44:57.577Z,456.00
2022-10-14T05:45:57.837Z,476.00
2022-10-14T05:46:58.086Z,504.00
2022-10-14T05:47:58.344Z,528.00
2022-10-14T05:48:58.615Z,556.00
2022-10-14T05:49:58.884Z,584.00
2022-10-14T05:50:59.145Z,604.00
2022-10-14T05:51:59.399Z,632.00
2022-10-14T05:52:59.676Z,652.00
2022-10-14T05:53:59.926Z,672.00
2022-10-14T05:55:00.206Z,692.00
2022-10-14T05:56:00.535Z,712.00
2022-10-14T05:57:00.777Z,744.00
2022-10-14T05:58:01.020Z,788.00
2022-10-14T05:59:01.259Z,828.00
2022-10-14T06:00:01.605Z,852.00
2022-10-14T06:01:01.760Z,880.00
2022-10-14T06:02:02.029Z,912.00
2022-10-14T06:03:02.295Z,944.00
2022-10-14T06:04:02.541Z,972.00
2022-10-14T06:05:02.859Z,1000.00
2022-10-14T06:06:03.120Z,1028.00
2022-10-14T06:07:03.390Z,1056.00
2022-10-14T06:08:03.685Z,1084.00
2022-10-14T06:09:06.605Z,1120.00
2022-10-14T06:10:05.203Z,1148.00
2022-10-14T06:11:04.534Z,1176.00
2022-10-14T06:12:04.824Z,1208.00
2022-10-14T06:13:05.202Z,1224.00
2022-10-14T06:14:05.369Z,1252.00
2022-10-14T06:15:05.686Z,1272.00
2022-10-14T06:16:05.954Z,1300.00
2022-10-14T06:17:06.223Z,1340.00
2022-10-14T06:18:06.563Z,1360.00
2022-10-14T06:19:06.831Z,1380.00
2022-10-14T06:20:07.132Z,1412.00
2022-10-14T06:21:07.405Z,1428.00
2022-10-14T06:22:07.725Z,1468.00
2022-10-14T06:23:07.988Z,1492.00
2022-10-14T06:24:08.278Z,1524.00
2022-10-14T06:25:08.546Z,1544.00
2022-10-14T06:26:08.824Z,1560.00
2022-10-14T06:27:09.107Z,1572.00
2022-10-14T06:28:09.355Z,1596.00
2022-10-14T06:29:09.627Z,1644.00
2022-10-14T06:30:09.904Z,1660.00
2022-10-14T06:31:10.176Z,1728.00
2022-10-14T06:32:10.495Z,1792.00
2022-10-14T06:33:10.799Z,1820.00
2022-10-14T06:34:11.069Z,1900.00
2022-10-14T06:35:11.366Z,1948.00
2022-10-14T06:36:11.641Z,1972.00
2022-10-14T06:37:11.988Z,2008.00
2022-10-14T06:38:12.265Z,2056.00
2022-10-14T06:39:13.459Z,2120.00
2022-10-14T06:40:12.838Z,2172.00
2022-10-14T06:41:13.121Z,2256.00
2022-10-14T06:42:13.455Z,2368.00
2022-10-14T06:43:13.709Z,2504.00
2022-10-14T06:44:14.095Z,2640.00
2022-10-14T06:45:14.305Z,2772.00
2022-10-14T06:46:14.570Z,2924.00
2022-10-14T06:47:14.861Z,3048.00
2022-10-14T06:48:15.151Z,3136.00
2022-10-14T06:49:15.444Z,3192.00
2022-10-14T06:50:15.884Z,3220.00
2022-10-14T06:51:16.019Z,3272.00
2022-10-14T06:52:16.311Z,3336.00
2022-10-14T06:53:16.582Z,3392.00
2022-10-14T06:54:16.868Z,3472.00
2022-10-14T06:55:17.581Z,3568.00
2022-10-14T06:56:17.403Z,3628.00
2022-10-14T06:57:17.703Z,3704.00
2022-10-14T06:58:17.987Z,3792.00
2022-10-14T06:59:18.286Z,3916.00
2022-10-14T07:00:18.677Z,3984.00
2022-10-14T07:01:19.406Z,3996.00
2022-10-14T07:02:20.368Z,3940.00
2022-10-14T07:03:19.401Z,3880.00
2022-10-14T07:04:19.696Z,3820.00
2022-10-14T07:05:19.993Z,3812.00
2022-10-14T07:06:20.285Z,3780.00
2022-10-14T07:07:20.595Z,3724.00
2022-10-14T07:08:20.903Z,3592.00
2022-10-14T07:09:21.625Z,3464.00
2022-10-14T07:10:21.467Z,3396.00
2022-10-14T07:11:21.776Z,3344.00
2022-10-14T07:12:22.483Z,3280.00
2022-10-14T07:13:22.337Z,3248.00
2022-10-14T07:14:22.638Z,3236.00
2022-10-14T07:15:22.938Z,3208.00
2022-10-14T07:16:23.237Z,3212.00
2022-10-14T07:17:24.157Z,3252.00
2022-10-14T07:18:23.778Z,3312.00
2022-10-14T07:19:24.171Z,3336.00
2022-10-14T07:20:24.335Z,3324.00
2022-10-14T07:21:24.659Z,3296.00
2022-10-14T07:22:25.085Z,3224.00
2022-10-14T07:23:25.194Z,3116.00
2022-10-14T07:24:25.544Z,3044.00
2022-10-14T07:25:25.852Z,3012.00
2022-10-14T07:26:26.130Z,3020.00
2022-10-14T07:27:26.421Z,3060.00
2022-10-14T07:28:26.793Z,3128.00
2022-10-14T07:29:27.022Z,3244.00
2022-10-14T07:30:27.255Z,3348.00
2022-10-14T07:31:27.484Z,3456.00
2022-10-14T07:32:27.788Z,3588.00
2022-10-14T07:33:28.129Z,3752.00
2022-10-14T07:34:28.293Z,3872.00
2022-10-14T07:35:28.601Z,3948.00
2022-10-14T07:36:28.882Z,4000.00
2022-10-14T07:37:29.164Z,4016.00
2022-10-14T07:38:29.446Z,4012.00
2022-10-14T07:39:29.746Z,3996.00
2022-10-14T07:40:30.043Z,4000.00
2022-10-14T07:41:30.355Z,4004.00
2022-10-14T07:42:30.685Z,4000.00
2022-10-14T07:43:30.966Z,3996.00
2022-10-14T07:44:31.272Z,3984.00
2022-10-14T07:45:31.549Z,3948.00
2022-10-14T07:46:31.857Z,3904.00
2022-10-14T07:47:32.154Z,3864.00
2022-10-14T07:48:32.966Z,3832.00
2022-10-14T07:49:33.759Z,3800.00
2022-10-14T07:50:32.987Z,3772.00
2022-10-14T07:51:33.281Z,3756.00
2022-10-14T07:52:33.575Z,3724.00
2022-10-14T07:53:33.930Z,3692.00
2022-10-14T07:54:34.128Z,3676.00
2022-10-14T07:55:34.487Z,3672.00
2022-10-14T07:56:34.669Z,3668.00
2022-10-14T07:57:35.007Z,3660.00
2022-10-14T07:58:35.180Z,3672.00
2022-10-14T07:59:35.522Z,3676.00
2022-10-14T08:00:35.801Z,3664.00
2022-10-14T08:01:36.161Z,3652.00
2022-10-14T08:02:36.439Z,3660.00
2022-10-14T08:03:36.719Z,3656.00
2022-10-14T08:04:37.032Z,3648.00
2022-10-14T08:05:38.874Z,3636.00
2022-10-14T08:06:37.614Z,3628.00
2022-10-14T08:07:37.923Z,3640.00
2022-10-14T08:08:38.233Z,3652.00
2022-10-14T08:09:38.564Z,3668.00
2022-10-14T08:10:38.875Z,3664.00
2022-10-14T08:11:39.242Z,3648.00
2022-10-14T08:12:39.865Z,3644.00
2022-10-14T08:13:43.307Z,3660.00
2022-10-14T08:14:40.984Z,3684.00
2022-10-14T08:15:40.206Z,3724.00
2022-10-14T08:16:40.485Z,3772.00
2022-10-14T08:17:40.855Z,3808.00
2022-10-14T08:18:41.161Z,3844.00
2022-10-14T08:19:41.570Z,3876.00
2022-10-14T08:20:41.709Z,3928.00
2022-10-14T08:21:42.108Z,3976.00
2022-10-14T08:22:42.268Z,4028.00
2022-10-14T08:23:42.539Z,4064.00
2022-10-14T08:24:42.866Z,4080.00
2022-10-14T08:25:43.211Z,4092.00
2022-10-14T08:26:43.488Z,4104.00
2022-10-14T08:27:43.807Z,4128.00
2022-10-14T08:28:44.225Z,4156.00
2022-10-14T08:29:44.360Z,4156.00
2022-10-14T08:30:44.651Z,4124.00
2022-10-14T08:31:45.829Z,4056.00
2022-10-14T08:32:45.170Z,3968.00
2022-10-14T08:33:45.468Z,3880.00
2022-10-14T08:34:45.781Z,3812.00
2022-10-14T08:35:49.152Z,3772.00
2022-10-14T08:36:47.346Z,3792.00
2022-10-14T08:37:46.568Z,3856.00
2022-10-14T08:38:46.925Z,3972.00
2022-10-14T08:39:47.082Z,4160.00
2022-10-14T08:40:47.905Z,4348.00
2022-10-14T08:41:47.689Z,4516.00
2022-10-14T08:42:47.987Z,4660.00
2022-10-14T08:43:48.269Z,4776.00
2022-10-14T08:44:48.554Z,4852.00
2022-10-14T08:45:48.837Z,4900.00
2022-10-14T08:46:51.968Z,4908.00
2022-10-14T08:47:49.396Z,4920.00
2022-10-14T08:48:49.688Z,4932.00
2022-10-14T08:49:49.995Z,4940.00
2022-10-14T08:50:50.270Z,4920.00
2022-10-14T08:51:50.556Z,4888.00
2022-10-14T08:52:50.836Z,4872.00
2022-10-14T08:53:51.118Z,4896.00
2022-10-14T08:54:52.176Z,4944.00
2022-10-14T08:55:51.727Z,4980.00
2022-10-14T08:56:52.448Z,4972.00
2022-10-14T08:57:52.308Z,4932.00
2022-10-14T08:58:53.342Z,4932.00
2022-10-14T08:59:53.354Z,4928.00
2022-10-14T09:00:53.179Z,4892.00
2022-10-14T09:01:54.230Z,4820.00
2022-10-14T09:02:54.548Z,4668.00
2022-10-14T09:03:54.862Z,4468.00
2022-10-14T09:04:55.063Z,4280.00
2022-10-14T09:05:55.351Z,4124.00
2022-10-14T09:06:55.619Z,4044.00
2022-10-14T09:07:55.497Z,4000.00
2022-10-14T09:08:55.462Z,3968.00
2022-10-14T09:09:56.488Z,3984.00
2022-10-14T09:10:56.003Z,4032.00
2022-10-14T09:11:56.318Z,4044.00
2022-10-14T09:12:56.703Z,4048.00
2022-10-14T09:13:56.934Z,4052.00
2022-10-14T09:14:57.245Z,4092.00
2022-10-14T09:15:57.516Z,4112.00
2022-10-14T09:16:57.815Z,4148.00
2022-10-14T09:17:58.147Z,4156.00
2022-10-14T09:18:58.354Z,4084.00
2022-10-14T09:19:58.655Z,3996.00
2022-10-14T09:20:58.944Z,3924.00
2022-10-14T09:21:59.248Z,3884.00
2022-10-14T09:22:59.540Z,3972.00
2022-10-14T09:23:59.827Z,4108.00
2022-10-14T09:25:00.122Z,4128.00
2022-10-14T09:26:00.410Z,3976.00
2022-10-14T09:27:00.701Z,3788.00
2022-10-14T09:28:00.982Z,3588.00
2022-10-14T09:29:01.333Z,3496.00
2022-10-14T09:30:02.457Z,3380.00
2022-10-14T09:31:01.799Z,3080.00
2022-10-14T09:32:02.081Z,2784.00
2022-10-14T09:33:02.388Z,2660.00
2022-10-14T09:34:02.675Z,2520.00
2022-10-14T09:35:02.992Z,2484.00
2022-10-14T11:16:30.248Z,4108.00
2022-10-14T11:17:20.486Z,4084.00
2022-10-14T11:18:20.399Z,4056.00
2022-10-14T11:19:20.861Z,3952.00
2022-10-14T11:20:21.034Z,3712.00
2022-10-14T11:21:21.350Z,3360.00
2022-10-14T11:22:21.915Z,3264.00
2022-10-14T11:23:21.850Z,3168.00
2022-10-14T11:24:22.118Z,3136.00
2022-10-14T11:25:22.393Z,2884.00
2022-10-14T11:26:22.690Z,2764.00
2022-10-14T11:27:24.824Z,2720.00
2022-10-14T11:28:23.367Z,2704.00
2022-10-14T11:29:23.564Z,2740.00
2022-10-14T11:30:23.837Z,2792.00
2022-10-14T11:31:24.114Z,2896.00
2022-10-14T11:32:24.383Z,3036.00
2022-10-14T11:33:24.647Z,2988.00
2022-10-14T11:34:24.922Z,2912.00
2022-10-14T11:35:25.325Z,2796.00
2022-10-14T11:36:25.426Z,2744.00
2022-10-14T11:37:25.685Z,2780.00
2022-10-14T11:38:26.035Z,2904.00
2022-10-14T11:39:26.180Z,2972.00
2022-10-14T11:40:26.429Z,3208.00
2022-10-14T11:41:26.679Z,3504.00
2022-10-14T11:42:26.965Z,3616.00
2022-10-14T11:43:27.400Z,3500.00
2022-10-14T11:44:27.595Z,3404.00
2022-10-14T11:45:27.808Z,3272.00
2022-10-14T11:46:28.029Z,3236.00
2022-10-14T11:47:28.264Z,3232.00
2022-10-14T11:48:28.544Z,3308.00
2022-10-14T11:49:28.831Z,3328.00
2022-10-14T11:50:29.285Z,3380.00
2022-10-14T11:51:34.741Z,3568.00
2022-10-14T11:52:30.592Z,3816.00
2022-10-14T11:53:29.963Z,3928.00
2022-10-14T11:54:30.214Z,4084.00
2022-10-14T11:55:30.518Z,4240.00
2022-10-14T11:56:30.765Z,4328.00
2022-10-14T11:57:31.230Z,4400.00
2022-10-14T11:58:31.358Z,4520.00
2022-10-14T11:59:31.676Z,4812.00
2022-10-14T12:00:31.918Z,5100.00
2022-10-14T12:01:35.666Z,5320.00
2022-10-14T12:02:33.432Z,5492.00
2022-10-14T12:03:32.784Z,5708.00
2022-10-14T12:04:33.039Z,5844.00
2022-10-14T12:05:33.294Z,5936.00
2022-10-14T12:06:33.674Z,5856.00
2022-10-14T12:07:34.145Z,5736.00
2022-10-14T12:08:35.657Z,5580.00
2022-10-14T12:09:34.359Z,5404.00
2022-10-14T12:10:34.618Z,5368.00
2022-10-14T12:11:34.911Z,5620.00
2022-10-14T12:12:35.159Z,5656.00
2022-10-14T12:13:35.449Z,5840.00
2022-10-14T12:14:35.711Z,5868.00
2022-10-14T12:15:36.029Z,5824.00
2022-10-14T12:16:36.268Z,5944.00
2022-10-14T12:17:36.533Z,5868.00
2022-10-14T12:19:37.257Z,4632.00
2022-10-14T12:20:37.313Z,4292.00
2022-10-14T12:21:37.544Z,3896.00
2022-10-14T12:22:37.830Z,3484.00
2022-10-14T12:23:38.094Z,3360.00
2022-10-14T12:24:38.411Z,2900.00
2022-10-14T12:25:38.696Z,2908.00
2022-10-14T12:26:38.996Z,2948.00
2022-10-14T12:27:39.247Z,3096.00
2022-10-14T12:28:39.567Z,3324.00
2022-10-14T12:29:39.808Z,3732.00
2022-10-14T12:30:40.068Z,4284.00
2022-10-14T12:31:40.377Z,4516.00
2022-10-14T12:32:40.686Z,4368.00
2022-10-14T12:33:40.967Z,4156.00
2022-10-14T12:34:41.237Z,3832.00
2022-10-14T12:35:41.490Z,3560.00
2022-10-14T12:36:41.767Z,3624.00
2022-10-14T12:37:42.055Z,3984.00
2022-10-14T12:38:42.361Z,4392.00
2022-10-14T12:39:42.614Z,4656.00
2022-10-14T12:40:42.879Z,4812.00
2022-10-14T12:41:43.129Z,4920.00
2022-10-14T12:42:44.052Z,5140.00
2022-10-14T12:43:43.643Z,5372.00
2022-10-14T12:44:43.892Z,5412.00
2022-10-14T12:45:44.164Z,5380.00
2022-10-14T12:46:44.407Z,5264.00
2022-10-14T12:47:44.675Z,5132.00
2022-10-14T12:48:44.962Z,5368.00
2022-10-14T12:49:45.194Z,5708.00
2022-10-14T12:50:45.454Z,5276.00
2022-10-14T12:51:45.713Z,4596.00
2022-10-14T12:52:46.003Z,4128.00
2022-10-14T12:53:46.265Z,3884.00
2022-10-14T12:54:46.604Z,3932.00
2022-10-14T12:55:46.906Z,4252.00
2022-10-14T12:56:47.170Z,4632.00
2022-10-14T12:57:47.447Z,4780.00
2022-10-14T12:58:47.748Z,4664.00
2022-10-14T12:59:48.088Z,4328.00
2022-10-14T13:00:48.222Z,3716.00
2022-10-14T13:01:48.524Z,3360.00
2022-10-14T13:02:48.766Z,3344.00
2022-10-14T13:03:49.114Z,3424.00
2022-10-14T13:04:49.335Z,3464.00
2022-10-14T13:05:49.600Z,3424.00
2022-10-14T13:06:49.862Z,3448.00
2022-10-14T13:07:50.717Z,3444.00
2022-10-14T13:08:50.441Z,3576.00
2022-10-14T13:09:50.704Z,3744.00
2022-10-14T13:10:50.964Z,3876.00
2022-10-14T13:11:51.205Z,3912.00
2022-10-14T13:12:51.444Z,3940.00
2022-10-14T13:13:51.713Z,4000.00
2022-10-14T13:14:51.980Z,3968.00
2022-10-14T13:15:52.235Z,3920.00
2022-10-14T13:16:52.484Z,3800.00
2022-10-14T13:17:52.777Z,3588.00
2022-10-14T13:18:53.048Z,3500.00
2022-10-14T13:19:53.325Z,3524.00
2022-10-14T13:20:53.603Z,3524.00
2022-10-14T13:21:53.899Z,3540.00
2022-10-14T13:22:54.274Z,3760.00
2022-10-14T13:23:54.436Z,3856.00
2022-10-14T13:24:54.693Z,3868.00
2022-10-14T13:25:54.958Z,3752.00
2022-10-14T13:26:55.237Z,3692.00
2022-10-14T13:27:55.497Z,3640.00
2022-10-14T13:28:55.798Z,3668.00
2022-10-14T13:29:56.049Z,3716.00
2022-10-14T13:30:56.311Z,3784.00
2022-10-14T13:31:56.567Z,3752.00
2022-10-14T13:32:56.849Z,3736.00
2022-10-14T13:33:57.141Z,3656.00
2022-10-14T13:34:57.400Z,3624.00
2022-10-14T13:35:57.662Z,3596.00
2022-10-14T13:36:57.943Z,3568.00
2022-10-14T13:37:58.192Z,3612.00
2022-10-14T13:38:58.464Z,3584.00
2022-10-14T13:39:58.725Z,3516.00
2022-10-14T13:40:58.976Z,3452.00
2022-10-14T13:41:59.237Z,3436.00
2022-10-14T13:42:59.486Z,3476.00
2022-10-14T13:43:59.747Z,3496.00
2022-10-14T13:44:59.997Z,3484.00
2022-10-14T13:46:00.258Z,3440.00
2022-10-14T13:47:00.547Z,3372.00
2022-10-14T13:48:00.807Z,3372.00
2022-10-14T13:49:01.088Z,3372.00
2022-10-14T13:50:01.353Z,3288.00
2022-10-14T13:51:11.324Z,3272.00
2022-10-14T13:52:02.968Z,3280.00
2022-10-14T13:53:02.250Z,3252.00
2022-10-14T13:54:02.520Z,3224.00
2022-10-14T13:55:02.772Z,3224.00
2022-10-14T13:56:03.021Z,3172.00
2022-10-14T13:58:13.659Z,3144.00
2022-10-14T13:59:11.745Z,3176.00
2022-10-14T14:00:39.489Z,3140.00
2022-10-14T14:01:05.422Z,3056.00
2022-10-14T14:02:04.634Z,3052.00
2022-10-14T14:03:04.889Z,3048.00
2022-10-14T14:04:05.151Z,3008.00
2022-10-14T14:05:05.390Z,3028.00
2022-10-14T14:06:05.635Z,2996.00
2022-10-14T14:07:27.760Z,2916.00
2022-10-14T14:08:36.572Z,2744.00
2022-10-14T14:09:07.487Z,2660.00
2022-10-14T14:10:06.873Z,2640.00
2022-10-14T14:11:22.289Z,2708.00
2022-10-14T14:12:08.340Z,2788.00
2022-10-14T14:13:07.665Z,2848.00
2022-10-14T14:14:07.905Z,2960.00
2022-10-14T14:15:08.148Z,3016.00
2022-10-14T14:16:08.389Z,3036.00
2022-10-14T14:17:08.641Z,3044.00
2022-10-14T14:18:08.902Z,3180.00
2022-10-14T14:19:10.200Z,3244.00
2022-10-14T14:20:09.415Z,3260.00
2022-10-14T14:21:09.684Z,3144.00